createdAt,value
2022-11-17T00:00:39.995Z,2.67
2022-11-17T00:03:06.939Z,2.47
2022-11-17T00:05:36.203Z,2.25
2022-11-17T00:08:03.503Z,2.53
2022-11-17T00:10:30.597Z,2.70
2022-11-17T00:13:16.444Z,2.50
2022-11-17T00:15:44.554Z,2.97
2022-11-17T00:18:29.918Z,2.65
2022-11-17T00:21:15.562Z,2.63
2022-11-17T00:23:49.765Z,2.75
2022-11-17T00:26:18.109Z,2.90
2022-11-17T00:28:45.469Z,2.17
2022-11-17T00:31:34.336Z,2.15
2022-11-17T00:34:07.763Z,2.78
2022-11-17T00:36:41.827Z,1.83
2022-11-17T00:39:09.572Z,1.90
2022-11-17T00:41:36.477Z,2.08
2022-11-17T00:44:03.433Z,2.03
2022-11-17T00:46:33.110Z,1.63
2022-11-17T00:49:00.334Z,2.03
2022-11-17T00:51:27.376Z,1.85
2022-11-17T00:53:54.575Z,1.40
2022-11-17T00:56:21.689Z,1.73
2022-11-17T00:58:48.750Z,1.75
2022-11-17T01:01:15.609Z,1.77
2022-11-17T01:03:42.740Z,1.50
2022-11-17T01:06:11.665Z,1.80
2022-11-17T01:08:38.945Z,1.70
2022-11-17T01:11:19.185Z,1.77
2022-11-17T01:13:47.153Z,1.58
2022-11-17T01:16:16.404Z,2.05
2022-11-17T01:18:43.622Z,1.70
2022-11-17T01:21:12.405Z,1.58
2022-11-17T01:23:39.728Z,2.25
2022-11-17T01:26:11.412Z,1.63
2022-11-17T01:28:38.785Z,1.83
2022-11-17T01:31:13.725Z,2.25
2022-11-17T01:33:40.684Z,1.95
2022-11-17T01:36:15.238Z,1.73
2022-11-17T01:38:42.278Z,1.83
2022-11-17T01:41:14.150Z,1.77
2022-11-17T01:43:55.705Z,2.40
2022-11-17T01:46:55.762Z,2.10
2022-11-17T01:49:27.114Z,2.65
2022-11-17T01:52:00.207Z,2.53
2022-11-17T01:54:27.564Z,3.45
2022-11-17T01:56:57.239Z,3.58
2022-11-17T01:59:31.837Z,3.88
2022-11-17T02:01:58.868Z,4.32
2022-11-17T02:04:30.669Z,4.25
2022-11-17T02:07:20.017Z,4.25
2022-11-17T02:09:46.890Z,4.40
2022-11-17T02:12:14.025Z,5.43
2022-11-17T02:14:41.051Z,6.13
2022-11-17T02:17:13.682Z,6.53
2022-11-17T02:19:42.230Z,8.07
2022-11-17T02:22:48.836Z,8.52
2022-11-17T02:25:28.319Z,5.15
2022-11-17T02:28:00.913Z,6.53
2022-11-17T02:30:29.077Z,7.43
2022-11-17T02:33:11.652Z,7.57
2022-11-17T02:38:23.801Z,7.72
2022-11-17T02:40:55.613Z,7.13
2022-11-17T02:43:43.121Z,6.65
2022-11-17T02:46:15.282Z,5.30
2022-11-17T02:48:55.028Z,5.18
2022-11-17T02:51:23.438Z,6.88
2022-11-17T02:53:51.613Z,6.53
2022-11-17T02:56:18.447Z,5.88
2022-11-17T02:58:46.059Z,5.72
2022-11-17T03:01:30.989Z,5.55
2022-11-17T03:04:26.808Z,5.53
2022-11-17T03:07:14.044Z,4.40
2022-11-17T03:09:49.341Z,3.70
2022-11-17T03:12:23.292Z,3.17
2022-11-17T03:15:42.212Z,2.95
2022-11-17T03:18:29.637Z,2.20
2022-11-17T03:21:17.203Z,2.08
2022-11-17T03:23:50.991Z,1.92
2022-11-17T03:26:28.224Z,1.75
2022-11-17T03:28:55.030Z,1.70
2022-11-17T03:31:21.870Z,1.60
2022-11-17T03:33:49.046Z,1.40
2022-11-17T03:36:17.099Z,1.30
2022-11-17T03:38:55.188Z,1.27
2022-11-17T03:41:21.988Z,1.50
2022-11-17T03:43:51.783Z,1.42
2022-11-17T03:46:19.560Z,1.30
2022-11-17T03:49:31.403Z,1.20
2022-11-17T03:51:58.311Z,1.02
2022-11-17T03:54:25.216Z,1.00
2022-11-17T03:57:11.200Z,1.10
2022-11-17T03:59:58.104Z,1.10
2022-11-17T04:02:25.145Z,1.00
2022-11-17T04:05:07.377Z,1.05
2022-11-17T04:07:42.275Z,0.90
2022-11-17T04:10:10.880Z,0.93
2022-11-17T04:12:56.253Z,0.95
2022-11-17T04:15:42.422Z,1.00
2022-11-17T04:18:09.418Z,0.98
2022-11-17T04:20:36.234Z,1.00
2022-11-17T04:23:07.342Z,1.02
2022-11-17T04:25:53.861Z,1.23
2022-11-17T04:28:39.149Z,1.17
2022-11-17T04:31:22.809Z,1.30
2022-11-17T04:33:54.179Z,1.58
2022-11-17T04:36:22.724Z,1.50
2022-11-17T04:38:51.029Z,1.60
2022-11-17T04:41:36.920Z,1.60
2022-11-17T04:44:04.285Z,1.77
2022-11-17T04:46:31.930Z,1.40
2022-11-17T04:48:59.049Z,1.50
2022-11-17T04:51:26.044Z,1.65
2022-11-17T04:53:52.988Z,1.65
2022-11-17T04:56:20.576Z,1.80
2022-11-17T04:58:47.565Z,1.70
2022-11-17T05:01:14.682Z,1.90
2022-11-17T05:03:55.121Z,1.90
2022-11-17T05:06:31.969Z,1.90
2022-11-17T05:08:59.437Z,2.00
2022-11-17T05:11:46.603Z,2.00
2022-11-17T05:14:14.345Z,2.15
2022-11-17T05:17:03.262Z,2.10
2022-11-17T05:19:39.333Z,2.15
2022-11-17T05:22:26.468Z,2.00
2022-11-17T05:24:53.454Z,2.08
2022-11-17T05:27:20.844Z,2.13
2022-11-17T05:29:47.703Z,2.65
2022-11-17T05:32:14.513Z,2.30
2022-11-17T05:34:41.330Z,2.20
2022-11-17T05:37:08.120Z,2.05
2022-11-17T05:39:35.018Z,2.33
2022-11-17T05:42:01.935Z,2.15
2022-11-17T05:44:28.812Z,2.03
2022-11-17T05:46:55.611Z,1.95
2022-11-17T05:49:22.447Z,2.20
2022-11-17T05:51:52.731Z,1.92
2022-11-17T05:54:20.440Z,2.20
2022-11-17T05:56:56.335Z,2.10
2022-11-17T05:59:39.240Z,2.00
2022-11-17T06:02:18.951Z,1.92
2022-11-17T06:04:46.453Z,1.90
2022-11-17T06:07:13.507Z,1.70
2022-11-17T06:09:41.600Z,1.90
2022-11-17T06:12:08.636Z,1.77
2022-11-17T06:14:35.680Z,1.77
2022-11-17T06:17:05.121Z,1.70
2022-11-17T06:19:35.024Z,1.90
2022-11-17T06:22:12.271Z,1.67
2022-11-17T06:24:41.345Z,1.60
2022-11-17T06:27:08.333Z,1.73
2022-11-17T06:29:39.413Z,1.90
2022-11-17T06:32:07.922Z,1.90
2022-11-17T06:34:35.008Z,1.85
2022-11-17T06:37:02.165Z,1.90
2022-11-17T06:39:29.145Z,1.63
2022-11-17T06:41:55.975Z,1.77
2022-11-17T06:44:22.925Z,2.10
2022-11-17T06:46:50.207Z,1.67
2022-11-17T06:49:17.483Z,1.85
2022-11-17T06:51:45.584Z,1.80
2022-11-17T06:54:14.833Z,1.80
2022-11-17T06:56:42.473Z,1.73
2022-11-17T06:59:09.720Z,1.60
2022-11-17T07:01:37.836Z,1.90
2022-11-17T07:04:05.064Z,1.90
2022-11-17T07:06:32.624Z,1.65
2022-11-17T07:09:01.923Z,1.50
2022-11-17T07:11:29.152Z,1.42
2022-11-17T07:13:57.386Z,1.50
2022-11-17T07:16:27.111Z,1.63
2022-11-17T07:18:54.116Z,1.63
2022-11-17T07:21:24.085Z,1.55
2022-11-17T07:23:51.055Z,1.73
2022-11-17T07:26:18.236Z,1.60
2022-11-17T07:28:45.355Z,1.50
2022-11-17T07:31:12.542Z,1.50
2022-11-17T07:33:39.552Z,1.70
2022-11-17T07:36:07.986Z,1.50
2022-11-17T07:38:35.380Z,1.80
2022-11-17T07:41:03.213Z,1.75
2022-11-17T07:43:30.486Z,1.80
2022-11-17T07:45:57.791Z,1.60
2022-11-17T07:48:24.808Z,1.70
2022-11-17T07:50:51.837Z,1.80
2022-11-17T07:53:18.868Z,1.75
2022-11-17T07:55:45.756Z,2.00
2022-11-17T07:58:12.677Z,1.90
2022-11-17T08:00:39.518Z,1.88
2022-11-17T08:03:06.548Z,1.90
2022-11-17T08:05:42.965Z,2.05
2022-11-17T08:08:10.752Z,2.00
2022-11-17T08:10:37.708Z,2.17
2022-11-17T08:13:04.654Z,2.30
2022-11-17T08:15:31.868Z,2.45
2022-11-17T08:17:59.613Z,2.30
2022-11-17T08:20:27.829Z,2.25
2022-11-17T08:22:54.904Z,2.63
2022-11-17T08:25:22.901Z,2.60
2022-11-17T08:27:52.361Z,2.33
2022-11-17T08:30:20.526Z,2.60
2022-11-17T08:32:52.278Z,2.33
2022-11-17T08:35:20.977Z,2.55
2022-11-17T08:37:48.405Z,2.65
2022-11-17T08:40:20.994Z,2.85
2022-11-17T08:42:49.645Z,3.13
2022-11-17T08:45:16.723Z,3.10
2022-11-17T08:47:43.740Z,2.88
2022-11-17T08:50:10.643Z,2.50
2022-11-17T08:52:37.886Z,2.75
2022-11-17T08:55:08.318Z,3.00
2022-11-17T08:57:36.039Z,2.30
2022-11-17T09:00:05.937Z,2.30
2022-11-17T09:02:33.214Z,2.70
2022-11-17T09:05:00.192Z,2.83
2022-11-17T09:07:32.033Z,2.80
2022-11-17T09:10:01.848Z,2.65
2022-11-17T09:12:28.679Z,2.80
2022-11-17T09:14:55.609Z,2.58
2022-11-17T09:17:22.699Z,2.70
2022-11-17T09:19:49.716Z,2.40
2022-11-17T09:22:16.663Z,2.92
2022-11-17T09:24:43.689Z,2.50
2022-11-17T09:27:10.644Z,2.30
2022-11-17T09:29:37.752Z,2.60
2022-11-17T09:32:04.792Z,2.60
2022-11-17T09:34:31.784Z,2.45
2022-11-17T09:36:58.814Z,2.40
2022-11-17T09:39:25.682Z,2.60
2022-11-17T09:41:53.455Z,2.45
2022-11-17T09:44:32.367Z,2.40
2022-11-17T09:47:03.654Z,2.40
2022-11-17T09:49:44.725Z,2.50
2022-11-17T09:52:22.638Z,2.50
2022-11-17T09:55:01.173Z,2.40
2022-11-17T09:57:39.802Z,2.35
2022-11-17T10:00:16.067Z,2.33
2022-11-17T10:02:43.216Z,2.45
2022-11-17T10:05:16.899Z,2.25
2022-11-17T10:07:49.146Z,2.50
2022-11-17T10:10:21.911Z,2.30
2022-11-17T10:12:51.836Z,2.10
2022-11-17T10:15:31.014Z,2.40
2022-11-17T10:17:58.055Z,2.30
2022-11-17T10:20:24.994Z,2.22
2022-11-17T10:22:52.129Z,2.53
2022-11-17T10:25:26.055Z,2.30
2022-11-17T10:27:54.032Z,2.28
2022-11-17T10:30:26.181Z,2.20
2022-11-17T10:32:57.489Z,2.40
2022-11-17T10:35:30.382Z,2.25
2022-11-17T10:38:04.185Z,2.25
2022-11-17T10:40:32.224Z,2.30
2022-11-17T10:43:06.658Z,2.25
2022-11-17T10:45:33.644Z,2.40
2022-11-17T10:48:16.871Z,2.17
2022-11-17T10:50:54.509Z,2.33
2022-11-17T10:53:46.129Z,2.40
2022-11-17T10:56:19.819Z,2.33
2022-11-17T10:59:17.135Z,2.40
2022-11-17T11:01:45.530Z,2.15
2022-11-17T11:04:34.585Z,2.30
2022-11-17T11:07:27.778Z,2.22
2022-11-17T11:10:05.637Z,2.55
2022-11-17T11:12:43.611Z,2.50
2022-11-17T11:15:21.733Z,2.88
2022-11-17T11:17:48.751Z,2.92
2022-11-17T11:20:16.756Z,2.85
2022-11-17T11:23:00.054Z,2.70
2022-11-17T11:25:58.179Z,2.28
2022-11-17T11:28:31.182Z,2.53
2022-11-17T11:31:11.959Z,2.38
2022-11-17T11:33:41.878Z,2.25
2022-11-17T11:36:15.582Z,2.78
2022-11-17T11:39:20.196Z,2.60
2022-11-17T11:42:08.192Z,2.42
2022-11-17T11:44:51.330Z,2.38
2022-11-17T11:47:39.136Z,2.75
2022-11-17T11:50:18.522Z,2.60
2022-11-17T11:52:57.618Z,2.78
2022-11-17T11:55:42.724Z,2.67
2022-11-17T11:58:24.313Z,2.60
2022-11-17T12:01:06.384Z,2.67
2022-11-17T12:03:42.513Z,2.65
2022-11-17T12:06:32.583Z,2.72
2022-11-17T12:09:12.731Z,3.00
2022-11-17T12:11:59.050Z,3.28
2022-11-17T12:14:26.690Z,3.20
2022-11-17T12:17:17.363Z,2.70
2022-11-17T12:19:52.582Z,3.00
2022-11-17T12:22:32.273Z,2.65
2022-11-17T12:25:20.524Z,2.80
2022-11-17T12:27:52.507Z,3.10
2022-11-17T12:30:35.376Z,2.97
2022-11-17T12:33:04.861Z,2.58
2022-11-17T12:35:35.807Z,2.78
2022-11-17T12:38:17.722Z,2.67
2022-11-17T12:40:46.225Z,2.63
2022-11-17T12:43:15.846Z,2.75
2022-11-17T12:46:08.459Z,2.70
2022-11-17T12:48:37.256Z,2.40
2022-11-17T12:51:07.191Z,2.60
2022-11-17T12:53:55.432Z,2.42
2022-11-17T12:56:22.260Z,2.80
2022-11-17T12:58:58.897Z,2.50
2022-11-17T13:01:45.798Z,2.30
2022-11-17T13:04:17.484Z,2.38
2022-11-17T13:07:04.375Z,2.35
2022-11-17T13:09:33.422Z,2.30
2022-11-17T13:12:10.652Z,2.50
2022-11-17T13:14:52.285Z,2.22
2022-11-17T13:17:22.454Z,2.15
2022-11-17T13:19:49.891Z,2.65
2022-11-17T13:22:18.764Z,2.65
2022-11-17T13:24:47.720Z,2.40
2022-11-17T13:27:46.777Z,2.08
2022-11-17T13:30:28.170Z,2.42
2022-11-17T13:32:55.985Z,2.40
2022-11-17T13:35:24.902Z,2.30
2022-11-17T13:38:17.834Z,2.13
2022-11-17T13:40:45.172Z,2.00
2022-11-17T13:43:13.970Z,2.28
2022-11-17T13:45:43.206Z,2.58
2022-11-17T13:48:33.654Z,2.00
2022-11-17T13:51:39.231Z,1.90
2022-11-17T13:54:12.568Z,2.10
2022-11-17T13:56:46.719Z,2.10
2022-11-17T13:59:33.382Z,2.05
2022-11-17T14:02:21.496Z,2.05
2022-11-17T14:05:23.248Z,1.98
2022-11-17T14:07:50.864Z,1.80
2022-11-17T14:10:20.811Z,1.85
2022-11-17T14:12:51.220Z,2.00
2022-11-17T14:15:23.782Z,1.83
2022-11-17T14:17:57.342Z,1.80
2022-11-17T14:20:24.204Z,2.08
2022-11-17T14:23:10.474Z,1.90
2022-11-17T14:25:55.368Z,1.90
2022-11-17T14:28:25.649Z,1.90
2022-11-17T14:30:53.935Z,1.67
2022-11-17T14:33:20.816Z,1.67
2022-11-17T14:35:54.002Z,1.70
2022-11-17T14:38:21.534Z,1.90
2022-11-17T14:40:49.277Z,1.80
2022-11-17T14:43:16.392Z,1.83
2022-11-17T14:45:43.684Z,2.08
2022-11-17T14:48:16.072Z,1.65
2022-11-17T14:50:45.897Z,1.60
2022-11-17T14:53:13.180Z,1.80
2022-11-17T14:55:40.246Z,1.70
2022-11-17T14:58:07.257Z,2.03
2022-11-17T15:00:34.812Z,1.80
2022-11-17T15:03:01.801Z,1.90
2022-11-17T15:05:28.693Z,1.90
2022-11-17T15:07:56.460Z,2.03
2022-11-17T15:10:23.455Z,1.90
2022-11-17T15:12:50.300Z,1.80
2022-11-17T15:15:18.140Z,1.80
2022-11-17T15:17:44.982Z,1.95
2022-11-17T15:20:12.227Z,1.90
2022-11-17T15:22:39.314Z,2.35
2022-11-17T15:25:06.854Z,2.00
2022-11-17T15:27:33.786Z,2.00
2022-11-17T15:30:00.734Z,2.00
2022-11-17T15:32:27.608Z,2.05
2022-11-17T15:34:54.625Z,1.80
2022-11-17T15:37:21.547Z,1.90
2022-11-17T15:39:48.727Z,2.10
2022-11-17T15:42:15.672Z,1.63
2022-11-17T15:44:42.542Z,1.70
2022-11-17T15:47:09.381Z,1.90
2022-11-17T15:49:36.281Z,1.67
2022-11-17T15:52:03.182Z,1.77
2022-11-17T15:54:30.075Z,1.83
2022-11-17T15:56:56.930Z,1.73
2022-11-17T15:59:24.066Z,2.00
2022-11-17T16:01:50.880Z,1.63
2022-11-17T16:04:18.034Z,1.83
2022-11-17T16:06:45.954Z,1.70
2022-11-17T16:09:13.269Z,1.80
2022-11-17T16:11:40.563Z,1.83
2022-11-17T16:14:07.618Z,1.80
2022-11-17T16:16:45.935Z,1.80
2022-11-17T16:19:13.074Z,1.70
2022-11-17T16:21:40.227Z,1.80
2022-11-17T16:24:09.883Z,1.83
2022-11-17T16:26:36.821Z,1.80
2022-11-17T16:29:07.116Z,1.70
2022-11-17T16:31:35.615Z,1.80
2022-11-17T16:34:05.284Z,1.52
2022-11-17T16:36:36.837Z,1.63
2022-11-17T16:39:05.443Z,1.40
2022-11-17T16:41:34.594Z,1.75
2022-11-17T16:44:01.884Z,2.00
2022-11-17T16:46:30.292Z,2.00
2022-11-17T16:49:00.558Z,1.85
2022-11-17T16:51:27.398Z,2.08
2022-11-17T16:54:04.975Z,2.15
2022-11-17T16:56:32.969Z,1.85
2022-11-17T16:59:00.634Z,1.90
2022-11-17T17:01:35.459Z,1.98
2022-11-17T17:04:04.789Z,1.92
2022-11-17T17:06:31.801Z,2.17
2022-11-17T17:09:05.928Z,1.83
2022-11-17T17:11:33.559Z,1.90
2022-11-17T17:14:03.060Z,2.10
2022-11-17T17:16:30.526Z,1.95
2022-11-17T17:19:01.908Z,2.03
2022-11-17T17:21:29.171Z,2.10
2022-11-17T17:23:56.381Z,2.00
2022-11-17T17:26:24.294Z,2.10
2022-11-17T17:28:52.183Z,2.00
2022-11-17T17:31:21.879Z,2.08
2022-11-17T17:33:50.405Z,1.80
2022-11-17T17:36:21.667Z,2.20
2022-11-17T17:38:55.042Z,2.20
2022-11-17T17:41:24.929Z,1.80
2022-11-17T17:44:00.216Z,1.92
2022-11-17T17:46:29.716Z,2.00
2022-11-17T17:48:56.815Z,2.10
2022-11-17T17:51:24.952Z,1.95
2022-11-17T17:53:53.268Z,2.28
2022-11-17T17:56:20.929Z,2.00
2022-11-17T17:58:48.994Z,2.13
2022-11-17T18:01:20.354Z,2.10
2022-11-17T18:03:48.228Z,2.20
2022-11-17T18:06:16.542Z,2.10
2022-11-17T18:08:43.499Z,2.45
2022-11-17T18:11:16.533Z,2.60
2022-11-17T18:13:44.454Z,2.30
2022-11-17T18:16:13.494Z,2.58
2022-11-17T18:18:40.493Z,2.80
2022-11-17T18:21:12.163Z,2.50
2022-11-17T18:23:39.247Z,2.88
2022-11-17T18:26:10.075Z,2.55
2022-11-17T18:28:40.160Z,2.13
2022-11-17T18:31:07.557Z,2.22
2022-11-17T18:33:34.803Z,1.80
2022-11-17T18:36:08.362Z,2.20
2022-11-17T18:38:36.391Z,2.08
2022-11-17T18:41:11.318Z,2.20
2022-11-17T18:43:38.415Z,2.00
2022-11-17T18:46:06.844Z,2.33
2022-11-17T18:48:41.875Z,2.28
2022-11-17T18:51:21.157Z,2.53
2022-11-17T18:53:49.419Z,2.60
2022-11-17T18:56:17.733Z,2.65
2022-11-17T18:58:44.584Z,2.70
2022-11-17T19:01:22.340Z,2.28
2022-11-17T19:03:51.017Z,2.50
2022-11-17T19:06:18.394Z,2.30
2022-11-17T19:08:45.537Z,2.45
2022-11-17T19:11:12.555Z,2.53
2022-11-17T19:13:40.426Z,2.58
2022-11-17T19:16:13.226Z,2.70
2022-11-17T19:18:40.312Z,2.30
2022-11-17T19:21:14.394Z,2.28
2022-11-17T19:23:46.566Z,2.33
2022-11-17T19:26:18.721Z,2.60
2022-11-17T19:28:45.672Z,1.90
2022-11-17T19:31:14.774Z,2.53
2022-11-17T19:33:41.918Z,3.20
2022-11-17T19:36:10.498Z,2.53
2022-11-17T19:38:38.552Z,2.38
2022-11-17T19:41:11.434Z,2.53
2022-11-17T19:43:44.516Z,2.30
2022-11-17T19:46:14.066Z,2.50
2022-11-17T19:48:41.127Z,2.28
2022-11-17T19:51:19.833Z,2.70
2022-11-17T19:53:51.628Z,2.65
2022-11-17T19:56:18.643Z,2.33
2022-11-17T19:58:45.814Z,2.65
2022-11-17T20:01:17.090Z,2.60
2022-11-17T20:03:45.126Z,2.67
2022-11-17T20:06:13.025Z,2.40
2022-11-17T20:08:40.312Z,2.70
2022-11-17T20:11:12.413Z,3.00
2022-11-17T20:13:40.440Z,3.22
2022-11-17T20:16:12.086Z,3.20
2022-11-17T20:18:40.683Z,3.17
2022-11-17T20:21:07.725Z,3.05
2022-11-17T20:23:35.232Z,2.40
2022-11-17T20:26:29.138Z,2.40
2022-11-17T20:28:57.074Z,2.53
2022-11-17T20:31:27.870Z,3.08
2022-11-17T20:34:00.399Z,2.80
2022-11-17T20:36:28.282Z,3.50
2022-11-17T20:39:02.210Z,2.97
2022-11-17T20:41:29.077Z,2.92
2022-11-17T20:43:56.725Z,2.40
2022-11-17T20:46:24.062Z,2.67
2022-11-17T20:48:51.133Z,2.40
2022-11-17T20:51:19.872Z,2.22
2022-11-17T20:53:47.026Z,2.60
2022-11-17T20:56:14.540Z,2.58
2022-11-17T20:58:41.443Z,2.28
2022-11-17T21:01:10.631Z,2.60
2022-11-17T21:03:37.675Z,2.38
2022-11-17T21:06:05.125Z,2.40
2022-11-17T21:08:34.033Z,2.67
2022-11-17T21:11:02.394Z,2.42
2022-11-17T21:13:30.342Z,2.50
2022-11-17T21:16:08.637Z,2.40
2022-11-17T21:18:36.462Z,2.63
2022-11-17T21:21:08.538Z,3.38
2022-11-17T21:23:36.495Z,2.75
2022-11-17T21:26:16.904Z,2.72
2022-11-17T21:28:43.853Z,2.67
2022-11-17T21:31:12.687Z,2.40
2022-11-17T21:33:40.044Z,2.40
2022-11-17T21:36:11.611Z,2.50
2022-11-17T21:38:38.698Z,2.45
2022-11-17T21:41:10.803Z,2.55
2022-11-17T21:43:38.418Z,2.10
2022-11-17T21:46:06.931Z,2.40
2022-11-17T21:48:34.878Z,2.30
2022-11-17T21:51:01.774Z,2.17
2022-11-17T21:53:28.774Z,2.20
2022-11-17T21:56:05.589Z,2.17
2022-11-17T21:58:33.452Z,1.90
2022-11-17T22:01:08.696Z,2.13
2022-11-17T22:03:36.059Z,2.10
2022-11-17T22:06:13.491Z,2.00
2022-11-17T22:08:41.483Z,2.03
2022-11-17T22:11:37.505Z,2.03
2022-11-17T22:14:10.997Z,2.10
2022-11-17T22:16:39.681Z,2.20
2022-11-17T22:19:07.892Z,2.35
2022-11-17T22:21:36.501Z,2.25
2022-11-17T22:24:04.127Z,1.98
2022-11-17T22:26:31.803Z,2.17
2022-11-17T22:28:59.018Z,2.00
2022-11-17T22:31:26.231Z,1.95
2022-11-17T22:33:53.116Z,2.10
2022-11-17T22:36:20.956Z,1.60
2022-11-17T22:38:50.399Z,1.88
2022-11-17T22:41:18.431Z,1.80
2022-11-17T22:43:52.304Z,1.75
2022-11-17T22:46:19.770Z,2.17
2022-11-17T22:48:46.828Z,1.90
2022-11-17T22:51:33.722Z,1.80
2022-11-17T22:54:01.257Z,1.70
2022-11-17T22:56:28.147Z,1.80
2022-11-17T22:58:59.513Z,1.90
2022-11-17T23:01:27.171Z,2.08
2022-11-17T23:03:54.177Z,2.35
2022-11-17T23:06:22.599Z,1.92
2022-11-17T23:08:49.754Z,1.88
2022-11-17T23:11:35.980Z,2.28
2022-11-17T23:14:03.696Z,1.98
2022-11-17T23:16:30.694Z,2.05
2022-11-17T23:18:57.702Z,2.38
2022-11-17T23:21:24.690Z,1.73
2022-11-17T23:23:51.643Z,1.90
2022-11-17T23:26:21.792Z,2.13
2022-11-17T23:28:48.955Z,1.80
2022-11-17T23:31:16.327Z,1.92
2022-11-17T23:33:44.820Z,2.20
2022-11-17T23:36:19.457Z,1.83
2022-11-17T23:38:47.068Z,2.25
2022-11-17T23:41:15.515Z,2.10
2022-11-17T23:43:42.754Z,2.22
2022-11-17T23:46:17.518Z,1.90
2022-11-17T23:48:44.934Z,1.88
2022-11-17T23:51:17.004Z,2.42
2022-11-17T23:53:44.069Z,2.05
2022-11-17T23:56:11.161Z,2.00
2022-11-17T23:58:38.593Z,1.98
